createdAt,value
2019-04-26T00:01:18.267Z,1.80
2019-04-26T00:03:52.507Z,1.80
2019-04-26T00:06:26.409Z,1.90
2019-04-26T00:09:04.265Z,1.90
2019-04-26T00:11:54.793Z,2.02
2019-04-26T00:14:32.807Z,2.13
2019-04-26T00:17:08.001Z,2.00
2019-04-26T00:19:42.871Z,2.00
2019-04-26T00:22:17.179Z,1.80
2019-04-26T00:24:50.750Z,2.03
2019-04-26T00:27:24.354Z,1.93
2019-04-26T00:29:57.860Z,1.87
2019-04-26T00:32:31.481Z,1.90
2019-04-26T00:35:06.641Z,1.80
2019-04-26T00:37:40.060Z,2.00
2019-04-26T00:40:14.316Z,2.03
2019-04-26T00:42:48.016Z,1.77
2019-04-26T00:45:22.945Z,1.83
2019-04-26T00:47:56.530Z,2.20
2019-04-26T00:50:30.922Z,2.23
2019-04-26T00:53:04.551Z,2.20
2019-04-26T00:55:38.541Z,1.92
2019-04-26T00:58:12.643Z,2.07
2019-04-26T01:00:46.601Z,2.20
2019-04-26T01:03:20.681Z,2.40
2019-04-26T01:06:00.090Z,2.03
2019-04-26T01:08:31.079Z,2.13
2019-04-26T01:11:04.660Z,2.10
2019-04-26T01:13:38.216Z,1.80
2019-04-26T01:16:11.678Z,1.90
2019-04-26T01:18:45.439Z,1.83
2019-04-26T01:21:20.631Z,1.67
2019-04-26T01:23:55.791Z,1.87
2019-04-26T01:26:32.165Z,1.70
2019-04-26T01:29:12.486Z,1.80
2019-04-26T01:32:01.149Z,1.50
2019-04-26T01:34:34.976Z,1.60
2019-04-26T01:37:08.728Z,1.80
2019-04-26T01:39:46.755Z,1.80
2019-04-26T01:42:30.422Z,1.80
2019-04-26T01:45:06.357Z,1.90
2019-04-26T01:47:40.511Z,1.80
2019-04-26T01:50:14.446Z,1.77
2019-04-26T01:52:48.481Z,1.67
2019-04-26T01:55:23.219Z,1.67
2019-04-26T01:57:58.025Z,1.63
2019-04-26T02:00:45.298Z,2.00
2019-04-26T02:03:21.554Z,1.70
2019-04-26T02:05:55.835Z,2.00
2019-04-26T02:08:30.344Z,1.90
2019-04-26T02:11:03.905Z,2.00
2019-04-26T02:13:37.276Z,2.33
2019-04-26T02:16:10.721Z,1.90
2019-04-26T02:18:44.218Z,2.10
2019-04-26T02:21:26.353Z,1.93
2019-04-26T02:24:07.625Z,2.50
2019-04-26T02:26:45.580Z,2.33
2019-04-26T02:29:22.351Z,2.37
2019-04-26T02:31:57.994Z,2.20
2019-04-26T02:34:36.080Z,2.10
2019-04-26T02:37:10.999Z,2.63
2019-04-26T02:39:44.544Z,2.20
2019-04-26T02:42:23.783Z,2.55
2019-04-26T02:45:23.049Z,2.40
2019-04-26T02:47:58.634Z,2.90
2019-04-26T02:50:49.535Z,3.00
2019-04-26T02:53:33.711Z,2.53
2019-04-26T02:56:30.292Z,2.60
2019-04-26T02:59:13.550Z,2.57
2019-04-26T03:01:48.634Z,2.53
2019-04-26T03:04:23.698Z,2.17
2019-04-26T03:07:03.478Z,2.33
2019-04-26T03:09:38.722Z,2.47
2019-04-26T03:12:16.159Z,2.60
2019-04-26T03:15:14.147Z,2.27
2019-04-26T03:17:52.096Z,2.60
2019-04-26T03:20:38.354Z,2.90
2019-04-26T03:23:17.774Z,2.53
2019-04-26T03:26:06.550Z,2.50
2019-04-26T03:29:03.809Z,2.57
2019-04-26T03:31:52.008Z,2.60
2019-04-26T03:34:28.855Z,2.67
2019-04-26T03:37:33.761Z,2.60
2019-04-26T03:40:16.973Z,2.70
2019-04-26T03:43:24.064Z,2.40
2019-04-26T03:46:06.520Z,2.70
2019-04-26T03:49:05.742Z,2.77
2019-04-26T03:51:43.107Z,2.80
2019-04-26T03:54:26.206Z,2.70
2019-04-26T03:57:13.982Z,2.67
2019-04-26T03:59:58.008Z,2.70
2019-04-26T04:02:50.863Z,2.70
2019-04-26T04:05:32.074Z,2.90
2019-04-26T04:08:08.162Z,3.00
2019-04-26T04:10:50.888Z,3.33
2019-04-26T04:13:43.302Z,2.97
2019-04-26T04:16:33.493Z,2.70
2019-04-26T04:20:04.836Z,2.60
2019-04-26T04:22:49.257Z,2.60
2019-04-26T04:25:28.418Z,3.03
2019-04-26T04:28:40.043Z,3.10
2019-04-26T04:31:15.637Z,2.77
2019-04-26T04:33:52.701Z,2.80
2019-04-26T04:36:29.576Z,3.33
2019-04-26T04:39:21.312Z,3.60
2019-04-26T04:42:02.255Z,3.30
2019-04-26T04:44:49.944Z,3.47
2019-04-26T04:47:49.216Z,3.63
2019-04-26T04:50:38.041Z,3.70
2019-04-26T04:53:23.399Z,3.97
2019-04-26T04:56:06.247Z,4.37
2019-04-26T04:58:56.592Z,4.53
2019-04-26T05:02:00.104Z,4.93
2019-04-26T05:04:47.359Z,4.80
2019-04-26T05:07:45.577Z,4.83
2019-04-26T05:10:34.362Z,5.03
2019-04-26T05:13:29.121Z,5.13
2019-04-26T05:16:16.330Z,6.07
2019-04-26T05:19:28.981Z,5.83
2019-04-26T05:22:14.432Z,6.23
2019-04-26T05:25:08.280Z,5.73
2019-04-26T05:28:16.512Z,6.40
2019-04-26T05:31:06.676Z,6.63
2019-04-26T05:33:49.031Z,7.60
2019-04-26T05:36:50.398Z,7.37
2019-04-26T05:39:26.806Z,7.93
2019-04-26T05:42:36.644Z,7.70
2019-04-26T05:45:43.043Z,9.00
2019-04-26T05:48:30.060Z,6.83
2019-04-26T05:51:33.655Z,7.50
2019-04-26T05:54:20.761Z,7.90
2019-04-26T05:57:08.226Z,7.60
2019-04-26T05:59:56.911Z,7.63
2019-04-26T06:02:59.116Z,8.53
2019-04-26T06:05:58.605Z,7.30
2019-04-26T06:08:36.770Z,7.77
2019-04-26T06:11:15.090Z,8.43
2019-04-26T06:14:14.579Z,8.37
2019-04-26T06:17:04.535Z,7.60
2019-04-26T06:20:23.094Z,7.57
2019-04-26T06:23:02.097Z,7.47
2019-04-26T06:25:43.012Z,7.73
2019-04-26T06:28:28.765Z,8.23
2019-04-26T06:31:11.113Z,7.97
2019-04-26T06:33:56.611Z,7.40
2019-04-26T06:36:34.741Z,7.40
2019-04-26T06:39:20.482Z,7.37
2019-04-26T06:42:18.611Z,7.03
2019-04-26T06:45:20.491Z,6.90
2019-04-26T06:48:10.474Z,7.00
2019-04-26T06:51:23.292Z,6.70
2019-04-26T06:54:13.397Z,6.80
2019-04-26T06:56:54.791Z,7.93
2019-04-26T06:59:53.829Z,6.33
2019-04-26T07:02:58.982Z,7.37
2019-04-26T07:05:35.077Z,7.30
2019-04-26T07:08:24.085Z,7.23
2019-04-26T07:11:24.876Z,7.80
2019-04-26T07:14:23.969Z,6.83
2019-04-26T07:17:05.728Z,6.33
2019-04-26T07:20:03.265Z,7.07
2019-04-26T07:23:15.006Z,7.10
2019-04-26T07:25:55.014Z,6.57
2019-04-26T07:28:55.973Z,6.23
2019-04-26T07:31:38.128Z,6.20
2019-04-26T07:34:32.962Z,5.57
2019-04-26T07:37:29.421Z,6.13
2019-04-26T07:40:26.795Z,5.57
2019-04-26T07:43:19.204Z,5.77
2019-04-26T07:46:27.498Z,6.43
2019-04-26T07:49:29.796Z,6.07
2019-04-26T07:52:23.012Z,5.97
2019-04-26T07:55:28.024Z,5.77
2019-04-26T07:58:38.120Z,5.77
2019-04-26T08:01:46.618Z,5.00
2019-04-26T08:04:32.913Z,5.40
2019-04-26T08:07:20.898Z,5.00
2019-04-26T08:10:09.988Z,5.27
2019-04-26T08:12:46.480Z,5.33
2019-04-26T08:15:25.983Z,4.80
2019-04-26T08:18:06.675Z,5.40
2019-04-26T08:20:53.760Z,4.70
2019-04-26T08:23:42.165Z,4.77
2019-04-26T08:26:13.411Z,4.50
2019-04-26T08:28:48.644Z,4.50
2019-04-26T08:31:25.595Z,4.87
2019-04-26T08:34:01.631Z,4.90
2019-04-26T08:36:38.650Z,5.10
2019-04-26T08:39:24.541Z,4.70
2019-04-26T08:41:58.560Z,4.97
2019-04-26T08:44:47.810Z,4.77
2019-04-26T08:47:35.460Z,4.87
2019-04-26T08:50:13.727Z,5.20
2019-04-26T08:52:46.985Z,4.67
2019-04-26T08:55:20.949Z,4.93
2019-04-26T08:57:56.836Z,5.07
2019-04-26T09:00:33.798Z,4.30
2019-04-26T09:03:11.618Z,4.20
2019-04-26T09:06:02.922Z,4.50
2019-04-26T09:08:39.197Z,4.10
2019-04-26T09:11:24.076Z,4.50
2019-04-26T09:13:51.550Z,3.93
2019-04-26T09:16:25.181Z,4.20
2019-04-26T09:18:59.763Z,4.20
2019-04-26T09:21:35.138Z,5.10
2019-04-26T09:24:12.974Z,4.13
2019-04-26T09:26:48.478Z,4.50
2019-04-26T09:29:30.221Z,4.40
2019-04-26T09:32:18.650Z,4.13
2019-04-26T09:34:52.331Z,4.40
2019-04-26T09:37:25.961Z,3.63
2019-04-26T09:40:09.544Z,3.77
2019-04-26T09:42:39.327Z,3.20
2019-04-26T09:45:29.864Z,4.03
2019-04-26T09:48:14.045Z,3.70
2019-04-26T09:50:52.155Z,3.70
2019-04-26T09:53:25.769Z,3.83
2019-04-26T09:55:59.406Z,3.10
2019-04-26T09:58:33.120Z,3.67
2019-04-26T10:01:06.807Z,3.57
2019-04-26T10:03:40.398Z,3.60
2019-04-26T10:06:13.975Z,3.73
2019-04-26T10:08:48.059Z,3.63
2019-04-26T10:11:23.320Z,3.90
2019-04-26T10:13:59.233Z,4.10
2019-04-26T10:16:40.236Z,4.17
2019-04-26T10:19:12.951Z,4.10
2019-04-26T10:21:46.596Z,4.03
2019-04-26T10:24:20.088Z,3.77
2019-04-26T10:26:55.438Z,4.20
2019-04-26T10:29:29.100Z,3.67
2019-04-26T10:32:02.508Z,3.63
2019-04-26T10:34:36.177Z,3.50
2019-04-26T10:37:16.790Z,4.00
2019-04-26T10:39:52.597Z,3.70
2019-04-26T10:42:26.274Z,3.90
2019-04-26T10:45:00.071Z,3.50
2019-04-26T10:47:34.375Z,3.80
2019-04-26T10:50:09.552Z,3.73
2019-04-26T10:52:56.351Z,3.60
2019-04-26T10:55:46.346Z,3.40
2019-04-26T10:58:20.468Z,3.63
2019-04-26T11:00:55.765Z,4.03
2019-04-26T11:03:29.379Z,3.90
2019-04-26T11:06:03.110Z,3.73
2019-04-26T11:08:37.122Z,4.27
2019-04-26T11:11:10.927Z,4.60
2019-04-26T11:13:44.580Z,4.27
2019-04-26T11:16:18.315Z,4.43
2019-04-26T11:18:51.898Z,4.73
2019-04-26T11:21:25.606Z,4.73
2019-04-26T11:23:59.074Z,5.27
2019-04-26T11:26:34.811Z,4.70
2019-04-26T11:29:08.064Z,5.30
2019-04-26T11:31:41.760Z,4.80
2019-04-26T11:34:15.500Z,5.50
2019-04-26T11:36:49.047Z,5.80
2019-04-26T11:39:22.583Z,5.57
2019-04-26T11:41:56.065Z,5.10
2019-04-26T11:44:29.451Z,5.40
2019-04-26T11:47:07.510Z,5.63
2019-04-26T11:49:41.621Z,5.37
2019-04-26T11:52:13.320Z,6.20
2019-04-26T11:54:46.946Z,5.53
2019-04-26T11:57:20.388Z,6.97
2019-04-26T11:59:54.057Z,6.60
2019-04-26T12:02:29.203Z,5.80
2019-04-26T12:05:19.989Z,6.50
2019-04-26T12:07:55.300Z,6.97
2019-04-26T12:10:29.224Z,5.90
2019-04-26T12:13:06.025Z,6.37
2019-04-26T12:15:38.999Z,7.00
2019-04-26T12:18:13.561Z,6.57
2019-04-26T12:20:47.274Z,7.10
2019-04-26T12:23:21.848Z,7.10
2019-04-26T12:25:55.739Z,6.50
2019-04-26T12:28:29.172Z,7.20
2019-04-26T12:31:02.758Z,6.80
2019-04-26T12:33:39.168Z,6.90
2019-04-26T12:36:13.356Z,7.57
2019-04-26T12:38:46.901Z,6.83
2019-04-26T12:41:25.250Z,7.50
2019-04-26T12:43:59.544Z,11.77
2019-04-26T12:46:32.707Z,6.95
2019-04-26T12:49:06.282Z,8.03
2019-04-26T12:51:42.785Z,7.00
2019-04-26T12:54:15.092Z,7.67
2019-04-26T12:56:48.715Z,7.03
2019-04-26T12:59:25.988Z,7.50
2019-04-26T13:02:05.617Z,7.00
2019-04-26T13:04:36.102Z,7.37
2019-04-26T13:07:22.702Z,6.57
2019-04-26T13:09:49.285Z,7.20
2019-04-26T13:12:33.169Z,6.33
2019-04-26T13:15:46.177Z,6.20
2019-04-26T13:18:20.944Z,5.87
2019-04-26T13:20:54.597Z,5.93
2019-04-26T13:23:29.822Z,3.93
2019-04-26T13:26:03.318Z,5.07
2019-04-26T13:28:36.849Z,4.83
2019-04-26T13:31:10.515Z,5.20
2019-04-26T13:33:44.012Z,5.33
2019-04-26T13:36:17.534Z,5.23
2019-04-26T13:38:51.058Z,5.90
2019-04-26T13:41:24.720Z,5.47
2019-04-26T13:44:01.296Z,4.73
2019-04-26T13:46:50.114Z,3.63
2019-04-26T13:49:25.228Z,4.20
2019-04-26T13:51:58.784Z,4.23
2019-04-26T13:54:32.303Z,4.60
2019-04-26T13:57:06.053Z,5.00
2019-04-26T13:59:41.107Z,4.60
2019-04-26T14:02:14.880Z,4.90
2019-04-26T14:04:48.911Z,4.17
2019-04-26T14:07:24.517Z,4.00
2019-04-26T14:09:57.940Z,4.13
2019-04-26T14:12:31.347Z,4.37
2019-04-26T14:15:08.427Z,3.90
2019-04-26T14:17:41.719Z,4.10
2019-04-26T14:20:15.255Z,4.00
2019-04-26T14:22:50.546Z,4.10
2019-04-26T14:25:32.084Z,5.30
2019-04-26T14:28:05.792Z,4.40
2019-04-26T14:30:41.872Z,4.23
2019-04-26T14:33:14.574Z,4.20
2019-04-26T14:35:50.550Z,4.40
2019-04-26T14:38:27.916Z,4.30
2019-04-26T14:41:03.982Z,4.67
2019-04-26T14:43:40.431Z,4.40
2019-04-26T14:46:10.509Z,4.30
2019-04-26T14:48:44.668Z,4.10
2019-04-26T14:51:19.207Z,4.00
2019-04-26T14:53:52.698Z,3.80
2019-04-26T14:56:29.461Z,3.67
2019-04-26T14:59:07.963Z,3.67
2019-04-26T15:01:43.997Z,3.33
2019-04-26T15:04:37.301Z,3.20
2019-04-26T15:07:12.141Z,3.33
2019-04-26T15:09:45.715Z,3.20
2019-04-26T15:12:19.143Z,3.20
2019-04-26T15:14:53.752Z,3.30
2019-04-26T15:17:28.932Z,2.90
2019-04-26T15:20:03.345Z,3.40
2019-04-26T15:22:36.971Z,3.40
2019-04-26T15:25:11.953Z,3.60
2019-04-26T15:27:45.601Z,3.60
2019-04-26T15:30:19.090Z,3.50
2019-04-26T15:32:53.031Z,3.20
2019-04-26T15:35:28.342Z,3.77
2019-04-26T15:38:02.483Z,3.10
2019-04-26T15:40:43.288Z,3.90
2019-04-26T15:43:24.446Z,3.97
2019-04-26T15:46:15.449Z,8.10
2019-04-26T15:49:09.540Z,5.90
2019-04-26T15:51:42.759Z,3.60
2019-04-26T15:54:17.898Z,3.30
2019-04-26T15:56:55.316Z,3.10
2019-04-26T15:59:28.863Z,3.13
2019-04-26T16:02:02.684Z,3.23
2019-04-26T16:04:36.094Z,3.07
2019-04-26T16:07:09.470Z,2.80
2019-04-26T16:09:43.580Z,2.93
2019-04-26T16:12:20.280Z,2.90
2019-04-26T16:14:52.172Z,2.73
2019-04-26T16:17:25.929Z,3.13
2019-04-26T16:20:00.137Z,3.20
2019-04-26T16:22:34.872Z,3.20
2019-04-26T16:25:08.691Z,3.27
2019-04-26T16:27:43.092Z,3.20
2019-04-26T16:30:32.584Z,3.40
2019-04-26T16:33:19.223Z,3.30
2019-04-26T16:35:52.835Z,3.40
2019-04-26T16:38:33.663Z,3.93
2019-04-26T16:41:07.774Z,3.27
2019-04-26T16:43:50.902Z,3.90
2019-04-26T16:46:20.262Z,3.70
2019-04-26T16:48:56.197Z,3.57
2019-04-26T16:51:27.088Z,3.60
2019-04-26T16:54:08.575Z,3.40
2019-04-26T16:56:36.124Z,3.93
2019-04-26T16:59:14.270Z,3.07
2019-04-26T17:01:47.311Z,3.10
2019-04-26T17:04:24.772Z,3.20
2019-04-26T17:06:55.390Z,3.33
2019-04-26T17:09:52.326Z,3.13
2019-04-26T17:12:06.082Z,3.40
2019-04-26T17:14:40.548Z,3.60
2019-04-26T17:17:14.716Z,3.33
2019-04-26T17:19:48.328Z,3.10
2019-04-26T17:22:23.354Z,3.17
2019-04-26T17:25:04.160Z,3.83
2019-04-26T17:27:40.246Z,3.60
2019-04-26T17:30:14.838Z,12.57
2019-04-26T17:32:51.641Z,6.77
2019-04-26T17:35:25.250Z,3.53
2019-04-26T17:38:01.986Z,3.87
2019-04-26T17:40:36.686Z,3.70
2019-04-26T17:43:09.966Z,8.37
2019-04-26T17:45:44.366Z,5.60
2019-04-26T17:48:18.116Z,5.77
2019-04-26T17:50:51.614Z,4.90
2019-04-26T17:53:30.591Z,6.43
2019-04-26T17:56:00.642Z,4.67
2019-04-26T17:58:43.271Z,4.17
2019-04-26T18:01:09.603Z,5.80
2019-04-26T18:03:50.826Z,6.70
2019-04-26T18:06:29.129Z,5.37
2019-04-26T18:08:55.183Z,4.80
2019-04-26T18:11:28.825Z,4.47
2019-04-26T18:14:02.289Z,4.50
2019-04-26T18:16:37.382Z,4.20
2019-04-26T18:19:12.827Z,4.07
2019-04-26T18:21:56.088Z,4.20
2019-04-26T18:24:27.582Z,4.03
2019-04-26T18:27:03.575Z,4.70
2019-04-26T18:29:37.045Z,4.80
2019-04-26T18:32:10.585Z,4.13
2019-04-26T18:34:44.033Z,4.63
2019-04-26T18:37:17.511Z,4.47
2019-04-26T18:39:51.087Z,4.47
2019-04-26T18:42:24.846Z,3.97
2019-04-26T18:44:59.702Z,3.83
2019-04-26T18:47:34.801Z,4.07
2019-04-26T18:50:09.053Z,3.87
2019-04-26T18:52:44.259Z,3.87
2019-04-26T18:55:21.553Z,4.10
2019-04-26T18:58:01.242Z,3.67
2019-04-26T19:00:31.469Z,3.90
2019-04-26T19:03:05.287Z,3.93
2019-04-26T19:05:38.799Z,3.77
2019-04-26T19:08:13.283Z,4.00
2019-04-26T19:10:58.217Z,3.93
2019-04-26T19:13:41.131Z,4.20
2019-04-26T19:16:32.365Z,4.80
2019-04-26T19:19:15.388Z,5.83
2019-04-26T19:22:00.829Z,5.77
2019-04-26T19:24:34.384Z,6.30
2019-04-26T19:27:07.837Z,6.77
2019-04-26T19:29:43.238Z,8.57
2019-04-26T19:32:16.655Z,9.03
2019-04-26T19:34:50.088Z,10.73
2019-04-26T19:37:23.618Z,11.03
2019-04-26T19:39:57.248Z,11.30
2019-04-26T19:42:32.289Z,12.43
2019-04-26T19:45:16.650Z,13.33
2019-04-26T19:47:58.367Z,13.57
2019-04-26T19:50:33.436Z,14.10
2019-04-26T19:53:17.428Z,14.70
2019-04-26T19:55:51.547Z,14.27
2019-04-26T19:58:26.823Z,13.67
2019-04-26T20:01:02.267Z,12.00
2019-04-26T20:03:36.122Z,13.70
2019-04-26T20:06:14.233Z,13.70
2019-04-26T20:08:46.952Z,13.53
2019-04-26T20:11:20.567Z,13.37
2019-04-26T20:13:55.334Z,13.27
2019-04-26T20:16:29.080Z,13.00
2019-04-26T20:19:02.758Z,13.23
2019-04-26T20:21:36.512Z,12.87
2019-04-26T20:24:10.094Z,12.13
2019-04-26T20:26:44.673Z,13.87
2019-04-26T20:29:18.346Z,12.60
2019-04-26T20:31:56.174Z,11.97
2019-04-26T20:34:29.692Z,11.43
2019-04-26T20:37:03.248Z,11.33
2019-04-26T20:39:36.793Z,11.40
2019-04-26T20:42:11.948Z,11.23
2019-04-26T20:44:51.073Z,10.97
2019-04-26T20:47:21.787Z,11.60
2019-04-26T20:50:01.266Z,10.17
2019-04-26T20:52:32.051Z,9.97
2019-04-26T20:55:06.450Z,10.10
2019-04-26T20:57:42.739Z,8.77
2019-04-26T21:00:15.278Z,7.83
2019-04-26T21:02:48.818Z,8.33
2019-04-26T21:05:22.446Z,7.63
2019-04-26T21:07:55.969Z,7.10
2019-04-26T21:10:29.461Z,7.03
2019-04-26T21:13:03.203Z,6.77
2019-04-26T21:15:36.691Z,7.20
2019-04-26T21:18:10.245Z,7.23
2019-04-26T21:20:43.897Z,6.93
2019-04-26T21:23:17.440Z,7.10
2019-04-26T21:25:58.176Z,6.90
2019-04-26T21:28:33.379Z,6.83
2019-04-26T21:31:24.707Z,6.97
2019-04-26T21:33:59.912Z,6.90
2019-04-26T21:36:41.066Z,7.30
2019-04-26T21:39:24.298Z,7.97
2019-04-26T21:42:03.458Z,8.53
2019-04-26T21:44:37.105Z,8.23
2019-04-26T21:47:10.626Z,8.93
2019-04-26T21:49:44.220Z,9.73
2019-04-26T21:52:21.381Z,9.07
2019-04-26T21:54:56.305Z,9.53
2019-04-26T21:57:28.440Z,9.17
2019-04-26T22:00:04.025Z,8.80
2019-04-26T22:02:37.638Z,9.80
2019-04-26T22:05:14.903Z,9.23
2019-04-26T22:07:47.831Z,8.83
2019-04-26T22:10:23.627Z,9.07
2019-04-26T22:13:01.510Z,9.07
2019-04-26T22:15:37.514Z,8.57
2019-04-26T22:18:27.462Z,8.50
2019-04-26T22:21:02.549Z,8.77
2019-04-26T22:23:54.859Z,8.73
2019-04-26T22:26:28.396Z,8.33
2019-04-26T22:29:03.716Z,8.23
2019-04-26T22:31:37.959Z,7.97
2019-04-26T22:34:12.957Z,7.60
2019-04-26T22:36:46.449Z,7.40
2019-04-26T22:39:20.175Z,7.17
2019-04-26T22:41:53.685Z,7.47
2019-04-26T22:44:31.359Z,7.17
2019-04-26T22:47:11.477Z,7.30
2019-04-26T22:49:45.437Z,7.10
2019-04-26T22:52:18.929Z,7.23
2019-04-26T22:54:53.879Z,6.40
2019-04-26T22:57:27.819Z,6.83
2019-04-26T23:00:01.209Z,6.30
2019-04-26T23:02:34.674Z,6.37
2019-04-26T23:05:08.811Z,7.10
2019-04-26T23:07:42.164Z,7.00
2019-04-26T23:10:16.103Z,7.27
2019-04-26T23:12:51.192Z,6.57
2019-04-26T23:15:43.272Z,6.70
2019-04-26T23:18:38.712Z,5.80
2019-04-26T23:21:15.752Z,5.77
2019-04-26T23:23:49.191Z,6.10
2019-04-26T23:26:23.116Z,6.30
2019-04-26T23:28:56.590Z,6.53
2019-04-26T23:31:30.118Z,5.87
2019-04-26T23:34:03.529Z,6.00
2019-04-26T23:36:36.895Z,6.07
2019-04-26T23:39:12.158Z,5.87
2019-04-26T23:41:45.423Z,5.80
2019-04-26T23:44:18.751Z,5.80
2019-04-26T23:46:56.581Z,5.40
2019-04-26T23:49:27.345Z,5.47
2019-04-26T23:52:00.724Z,5.57
2019-04-26T23:54:35.874Z,5.67
2019-04-26T23:57:09.357Z,5.40
2019-04-26T23:59:43.148Z,5.20
